createdAt,value
2023-06-20T00:03:39.663Z,19.63
2023-06-20T00:08:43.661Z,19.61
2023-06-20T00:13:47.683Z,19.66
2023-06-20T00:18:55.657Z,19.68
2023-06-20T00:23:59.767Z,19.67
2023-06-20T00:29:03.879Z,19.56
2023-06-20T00:34:07.925Z,19.45
2023-06-20T00:39:12.464Z,19.45
2023-06-20T00:44:16.403Z,19.47
2023-06-20T00:49:20.699Z,19.49
2023-06-20T00:54:24.848Z,19.48
2023-06-20T00:59:28.664Z,19.43
2023-06-20T01:04:33.217Z,19.34
2023-06-20T01:09:58.748Z,19.31
2023-06-20T01:15:29.718Z,19.33
2023-06-20T01:20:46.046Z,19.44
2023-06-20T01:25:53.642Z,19.41
2023-06-20T01:31:12.890Z,19.27
2023-06-20T01:36:23.152Z,19.19
2023-06-20T01:41:30.324Z,19.24
2023-06-20T01:46:36.886Z,19.33
2023-06-20T01:51:42.137Z,19.32
2023-06-20T01:56:48.940Z,19.18
2023-06-20T02:01:55.169Z,19.08
2023-06-20T02:07:00.383Z,19.04
2023-06-20T02:12:07.915Z,19.04
2023-06-20T02:17:15.648Z,19.04
2023-06-20T02:22:24.628Z,19.02
2023-06-20T02:27:28.815Z,19.08
2023-06-20T02:32:34.960Z,19.16
2023-06-20T02:37:42.231Z,19.18
2023-06-20T02:42:46.529Z,19.09
2023-06-20T02:48:28.976Z,18.96
2023-06-20T02:53:46.444Z,18.87
2023-06-20T02:58:55.955Z,18.90
2023-06-20T03:04:06.087Z,18.87
2023-06-20T03:09:12.347Z,18.88
2023-06-20T03:14:16.134Z,18.77
2023-06-20T03:19:20.095Z,18.64
2023-06-20T03:24:24.393Z,18.56
2023-06-20T03:29:28.463Z,18.50
2023-06-20T03:34:32.696Z,18.48
2023-06-20T03:39:36.838Z,18.60
2023-06-20T03:44:41.072Z,18.70
2023-06-20T03:49:45.636Z,18.66
2023-06-20T03:54:49.844Z,18.63
2023-06-20T03:59:54.139Z,18.63
2023-06-20T04:04:59.150Z,18.60
2023-06-20T04:10:04.412Z,18.56
2023-06-20T04:15:10.136Z,18.61
2023-06-20T04:20:14.850Z,18.70
2023-06-20T04:25:18.956Z,18.87
2023-06-20T04:30:25.941Z,19.08
2023-06-20T04:35:30.100Z,19.19
2023-06-20T04:40:34.422Z,19.24
2023-06-20T04:45:40.398Z,19.31
2023-06-20T04:50:45.669Z,19.46
2023-06-20T04:55:55.561Z,19.73
2023-06-20T05:01:05.247Z,20.03
2023-06-20T05:06:10.355Z,20.43
2023-06-20T05:11:14.685Z,20.88
2023-06-20T05:16:19.097Z,21.02
2023-06-20T05:21:23.462Z,21.28
2023-06-20T05:26:28.119Z,21.31
2023-06-20T05:31:32.449Z,21.37
2023-06-20T05:36:36.693Z,21.50
2023-06-20T05:41:41.134Z,21.65
2023-06-20T05:46:45.496Z,21.84
2023-06-20T05:51:50.120Z,21.96
2023-06-20T05:56:54.660Z,22.05
2023-06-20T06:01:59.712Z,22.05
2023-06-20T06:07:09.217Z,22.22
2023-06-20T06:12:13.514Z,22.40
2023-06-20T06:17:19.223Z,22.60
2023-06-20T06:22:23.529Z,22.82
2023-06-20T06:27:27.670Z,22.98
2023-06-20T06:32:39.454Z,23.10
2023-06-20T06:37:44.427Z,23.34
2023-06-20T06:42:48.973Z,23.72
2023-06-20T06:47:53.332Z,23.96
2023-06-20T06:52:57.850Z,24.17
2023-06-20T06:58:02.899Z,24.39
2023-06-20T07:03:10.144Z,24.79
2023-06-20T07:08:15.572Z,25.08
2023-06-20T07:13:20.024Z,25.25
2023-06-20T07:18:25.077Z,25.57
2023-06-20T07:23:30.032Z,25.87
2023-06-20T07:28:34.388Z,26.26
2023-06-20T07:33:38.845Z,26.34
2023-06-20T07:38:43.548Z,26.52
2023-06-20T07:43:47.819Z,26.75
2023-06-20T07:48:52.136Z,26.98
2023-06-20T07:53:56.376Z,27.33
2023-06-20T07:59:00.870Z,27.54
2023-06-20T08:04:06.169Z,27.48
2023-06-20T08:09:10.418Z,27.54
2023-06-20T08:14:15.604Z,27.66
2023-06-20T08:19:19.996Z,27.78
2023-06-20T08:24:24.823Z,27.94
2023-06-20T08:29:29.096Z,28.00
2023-06-20T08:34:33.297Z,28.15
2023-06-20T08:39:37.666Z,28.49
2023-06-20T08:44:56.195Z,28.38
2023-06-20T08:50:02.511Z,28.56
2023-06-20T08:55:07.497Z,28.85
2023-06-20T09:00:16.935Z,29.17
2023-06-20T09:05:21.781Z,28.91
2023-06-20T09:10:27.643Z,28.96
2023-06-20T09:15:32.014Z,29.16
2023-06-20T09:20:37.268Z,29.20
2023-06-20T09:25:42.420Z,29.39
2023-06-20T09:30:49.950Z,29.42
2023-06-20T09:35:55.306Z,29.31
2023-06-20T09:40:59.470Z,29.53
2023-06-20T09:46:04.393Z,29.65
2023-06-20T09:51:12.227Z,30.02
2023-06-20T09:56:20.022Z,29.94
2023-06-20T10:01:25.111Z,29.94
2023-06-20T10:06:31.437Z,30.45
2023-06-20T10:11:42.436Z,30.21
2023-06-20T10:16:53.558Z,30.30
2023-06-20T10:22:02.970Z,30.66
2023-06-20T10:27:08.867Z,30.22
2023-06-20T10:32:15.031Z,29.90
2023-06-20T10:37:39.946Z,29.49
2023-06-20T10:42:45.546Z,29.20
2023-06-20T10:47:52.040Z,29.44
2023-06-20T10:52:56.276Z,29.80
2023-06-20T10:58:00.828Z,30.01
2023-06-20T11:03:05.476Z,29.99
2023-06-20T11:08:10.089Z,29.64
2023-06-20T11:13:14.660Z,29.59
2023-06-20T11:18:19.427Z,30.18
2023-06-20T11:23:24.157Z,29.91
2023-06-20T11:28:28.599Z,29.67
2023-06-20T11:33:32.834Z,29.83
2023-06-20T11:38:40.863Z,30.58
2023-06-20T11:43:45.726Z,30.55
2023-06-20T11:48:53.676Z,30.97
2023-06-20T11:54:08.891Z,31.31
2023-06-20T11:59:13.764Z,31.47
2023-06-20T12:04:23.224Z,31.71
2023-06-20T12:09:30.034Z,32.20
2023-06-20T12:14:34.268Z,32.23
2023-06-20T12:19:52.245Z,32.20
2023-06-20T12:24:56.140Z,32.57
2023-06-20T12:30:00.215Z,32.34
2023-06-20T12:35:05.027Z,32.26
2023-06-20T12:40:11.324Z,32.38
2023-06-20T12:45:15.346Z,32.06
2023-06-20T12:50:19.579Z,31.75
2023-06-20T12:55:23.699Z,31.63
2023-06-20T13:00:30.648Z,31.04
2023-06-20T13:05:34.940Z,30.91
2023-06-20T13:10:38.886Z,30.89
2023-06-20T13:15:44.178Z,31.14
2023-06-20T13:20:51.197Z,30.97
2023-06-20T13:25:56.736Z,30.93
2023-06-20T13:31:00.749Z,30.85
2023-06-20T13:36:09.288Z,30.96
2023-06-20T13:41:13.297Z,31.02
2023-06-20T13:46:17.671Z,31.36
2023-06-20T13:51:21.714Z,31.47
2023-06-20T13:56:26.572Z,31.03
2023-06-20T14:01:30.910Z,30.82
2023-06-20T14:06:36.009Z,30.76
2023-06-20T14:11:40.224Z,30.74
2023-06-20T14:16:44.423Z,30.99
2023-06-20T14:21:48.829Z,30.92
2023-06-20T14:26:53.264Z,30.80
2023-06-20T14:31:57.360Z,30.58
2023-06-20T14:37:02.682Z,30.65
2023-06-20T14:42:07.296Z,30.96
2023-06-20T14:47:11.854Z,30.87
2023-06-20T14:52:16.713Z,30.88
2023-06-20T14:57:20.525Z,30.70
2023-06-20T15:02:25.007Z,30.61
2023-06-20T15:07:28.948Z,30.95
2023-06-20T15:12:35.919Z,31.26
2023-06-20T15:17:40.506Z,31.22
2023-06-20T15:22:44.672Z,31.32
2023-06-20T15:27:48.650Z,31.52
2023-06-20T15:32:53.085Z,31.98
2023-06-20T15:37:58.353Z,31.60
2023-06-20T15:43:02.150Z,31.30
2023-06-20T15:48:07.152Z,31.49
2023-06-20T15:53:11.843Z,31.77
2023-06-20T15:58:15.777Z,31.91
2023-06-20T16:03:19.882Z,31.94
2023-06-20T16:08:24.765Z,32.19
2023-06-20T16:13:28.880Z,32.58
2023-06-20T16:18:33.031Z,32.74
2023-06-20T16:23:39.447Z,32.78
2023-06-20T16:28:43.557Z,32.58
2023-06-20T16:33:50.790Z,32.36
2023-06-20T16:38:55.425Z,32.44
2023-06-20T16:43:59.216Z,32.09
2023-06-20T16:49:03.162Z,31.78
2023-06-20T16:54:07.501Z,31.66
2023-06-20T16:59:11.432Z,31.65
2023-06-20T17:04:15.606Z,31.56
2023-06-20T17:09:19.481Z,31.33
2023-06-20T17:14:23.721Z,31.02
2023-06-20T17:19:29.055Z,30.61
2023-06-20T17:24:34.463Z,30.28
2023-06-20T17:29:44.337Z,29.94
2023-06-20T17:34:51.247Z,29.61
2023-06-20T17:39:56.383Z,29.34
2023-06-20T17:45:04.705Z,29.08
2023-06-20T17:50:12.745Z,28.87
2023-06-20T17:55:18.209Z,28.59
2023-06-20T18:00:24.920Z,28.36
2023-06-20T18:05:30.682Z,28.14
2023-06-20T18:10:34.782Z,27.90
2023-06-20T18:15:40.924Z,27.69
2023-06-20T18:20:45.328Z,27.54
2023-06-20T18:25:49.002Z,27.41
2023-06-20T18:30:53.525Z,27.21
2023-06-20T18:35:58.222Z,26.96
2023-06-20T18:41:02.285Z,26.69
2023-06-20T18:46:06.182Z,26.41
2023-06-20T18:51:10.219Z,26.15
2023-06-20T18:56:15.690Z,25.94
2023-06-20T19:01:21.516Z,25.84
2023-06-20T19:06:26.212Z,25.71
2023-06-20T19:11:30.843Z,25.51
2023-06-20T19:16:37.138Z,25.30
2023-06-20T19:21:42.591Z,25.06
2023-06-20T19:26:47.343Z,24.84
2023-06-20T19:31:52.401Z,24.67
2023-06-20T19:36:57.157Z,24.49
2023-06-20T19:42:01.588Z,24.36
2023-06-20T19:47:05.720Z,24.20
2023-06-20T19:52:11.671Z,24.06
2023-06-20T19:57:18.088Z,23.92
2023-06-20T20:02:28.088Z,23.76
2023-06-20T20:07:32.620Z,23.64
2023-06-20T20:12:43.106Z,23.58
2023-06-20T20:17:47.202Z,23.47
2023-06-20T20:22:51.474Z,23.28
2023-06-20T20:27:57.651Z,23.17
2023-06-20T20:33:02.397Z,23.14
2023-06-20T20:38:09.076Z,23.13
2023-06-20T20:43:13.417Z,23.08
2023-06-20T20:48:17.846Z,23.00
2023-06-20T20:53:23.628Z,22.89
2023-06-20T20:58:27.564Z,22.74
2023-06-20T21:03:32.027Z,22.61
2023-06-20T21:08:37.254Z,22.57
2023-06-20T21:13:41.184Z,22.51
2023-06-20T21:18:47.157Z,22.44
2023-06-20T21:23:51.416Z,22.37
2023-06-20T21:28:56.162Z,22.27
2023-06-20T21:34:01.729Z,22.10
2023-06-20T21:39:06.680Z,21.95
2023-06-20T21:44:10.701Z,21.92
2023-06-20T21:49:14.636Z,21.89
2023-06-20T21:54:19.139Z,21.79
2023-06-20T21:59:24.938Z,21.76
2023-06-20T22:04:29.290Z,21.70
2023-06-20T22:09:33.637Z,21.50
2023-06-20T22:14:37.997Z,21.39
2023-06-20T22:19:45.605Z,21.37
2023-06-20T22:24:51.865Z,21.38
2023-06-20T22:29:56.464Z,21.30
2023-06-20T22:35:00.636Z,21.18
2023-06-20T22:40:06.807Z,21.06
2023-06-20T22:45:11.217Z,21.05
2023-06-20T22:50:16.013Z,21.00
2023-06-20T22:55:19.840Z,20.90
2023-06-20T23:00:24.930Z,20.78
2023-06-20T23:05:29.029Z,20.74
2023-06-20T23:11:06.038Z,20.56
2023-06-20T23:16:10.212Z,20.43
2023-06-20T23:21:17.704Z,20.35
2023-06-20T23:26:23.821Z,20.22
2023-06-20T23:31:33.343Z,20.10
2023-06-20T23:36:39.815Z,19.94
2023-06-20T23:41:43.735Z,19.93
2023-06-20T23:46:48.304Z,19.88
2023-06-20T23:51:52.540Z,19.94
2023-06-20T23:56:56.751Z,19.89
